Time;durP1;ratioP1;P1;durP2;ratioP2;P2;SDS_P1;SDS_P2;PMS_P1;PMS_P2;Temp;Humidity;BMP_temperature;BMP_pressure;BME280_temperature;BME280_humidity;BME280_pressure;Samples;Min_cycle;Max_cycle;Signal;HPM_P1;HPM_P2
2022/04/15 00:00:59;;;;;;;11.35;10.38;;;13.50;99.90;;;;;;5053324;28;20247;-61
2022/04/15 00:03:30;;;;;;;10.70;9.50;;;13.40;99.90;;;;;;5052569;28;20196;-61
2022/04/15 00:05:59;;;;;;;12.95;11.85;;;13.40;99.90;;;;;;5053608;28;20212;-61
2022/04/15 00:08:28;;;;;;;11.02;10.02;;;13.40;99.90;;;;;;5052900;28;20700;-61
2022/04/15 00:10:57;;;;;;;13.75;12.55;;;13.40;99.90;;;;;;5067229;28;20725;-62
2022/04/15 00:13:33;;;;;;;14.90;13.55;;;13.40;99.90;;;;;;5051881;28;20651;-63
2022/04/15 00:16:02;;;;;;;15.10;13.70;;;13.30;99.90;;;;;;5053345;28;20222;-61
2022/04/15 00:18:31;;;;;;;16.38;14.80;;;13.30;99.90;;;;;;5053040;28;20210;-62
2022/04/15 00:20:59;;;;;;;16.40;14.90;;;13.40;99.90;;;;;;5053086;28;20274;-62
2022/04/15 00:23:28;;;;;;;15.65;14.13;;;13.30;99.90;;;;;;5052127;28;20636;-61
2022/04/15 00:25:56;;;;;;;17.42;15.50;;;13.30;99.90;;;;;;5068433;28;20298;-61
2022/04/15 00:28:25;;;;;;;17.55;15.77;;;13.30;99.90;;;;;;5072828;28;20259;-61
2022/04/15 00:30:53;;;;;;;17.45;15.70;;;13.30;99.90;;;;;;5071874;28;20199;-61
2022/04/15 00:33:22;;;;;;;14.10;12.63;;;13.30;99.90;;;;;;5052143;28;20294;-61
2022/04/15 00:35:50;;;;;;;15.20;13.90;;;13.30;99.90;;;;;;5052513;28;20231;-61
2022/04/15 00:38:18;;;;;;;15.48;14.27;;;13.40;99.90;;;;;;5052647;28;20215;-61
2022/04/15 00:40:47;;;;;;;15.98;14.52;;;13.40;99.90;;;;;;5052790;28;20249;-61
2022/04/15 00:43:15;;;;;;;15.18;13.88;;;13.40;99.90;;;;;;5052010;28;20254;-61
2022/04/15 00:45:46;;;;;;;15.50;14.18;;;13.40;99.90;;;;;;5052650;28;20591;-61
2022/04/15 00:48:16;;;;;;;15.40;14.00;;;13.40;99.90;;;;;;5052496;28;20742;-61
2022/04/15 00:50:44;;;;;;;14.18;12.88;;;13.40;99.90;;;;;;5052745;28;20231;-60
2022/04/15 00:53:22;;;;;;;14.55;13.43;;;13.40;99.90;;;;;;5051944;28;20279;-61
2022/04/15 00:55:57;;;;;;;15.20;13.65;;;13.40;99.90;;;;;;5052476;28;20220;-60
2022/04/15 00:58:26;;;;;;;13.75;12.55;;;13.40;99.90;;;;;;5052296;28;20195;-61
2022/04/15 01:00:56;;;;;;;15.65;14.35;;;13.40;99.90;;;;;;5052376;28;20188;-60
2022/04/15 01:03:24;;;;;;;15.60;14.10;;;13.40;99.90;;;;;;5051945;28;20280;-61
2022/04/15 01:05:57;;;;;;;13.05;11.98;;;13.30;99.90;;;;;;5052020;28;20252;-61
2022/04/15 01:08:28;;;;;;;15.68;14.18;;;13.30;99.90;;;;;;5051509;28;20234;-61
2022/04/15 01:11:00;;;;;;;14.43;13.07;;;13.30;99.90;;;;;;5070742;28;20207;-61
2022/04/15 01:13:32;;;;;;;15.52;13.82;;;13.30;99.90;;;;;;5071745;28;20635;-61
2022/04/15 01:16:01;;;;;;;16.08;14.68;;;13.30;99.90;;;;;;5071967;28;20231;-61
2022/04/15 01:18:29;;;;;;;14.98;13.63;;;13.10;99.90;;;;;;5071809;28;20211;-61
2022/04/15 01:20:57;;;;;;;13.70;12.60;;;13.00;99.90;;;;;;5069911;28;20217;-61
2022/04/15 01:23:26;;;;;;;15.43;14.13;;;13.00;99.90;;;;;;5057308;28;20227;-61
2022/04/15 01:25:54;;;;;;;18.13;16.23;;;12.90;99.90;;;;;;5031861;28;20256;-62
2022/04/15 01:28:22;;;;;;;20.48;18.23;;;12.90;99.90;;;;;;5031527;28;20708;-61
2022/04/15 01:30:50;;;;;;;20.52;18.73;;;12.80;99.90;;;;;;5032004;28;20247;-61
2022/04/15 01:33:18;;;;;;;18.50;17.00;;;12.80;99.90;;;;;;5031062;28;20275;-62
2022/04/15 01:35:50;;;;;;;21.77;19.98;;;12.80;99.90;;;;;;5031509;28;20323;-61
2022/04/15 01:38:19;;;;;;;20.33;18.58;;;12.80;99.90;;;;;;5031639;28;20236;-61
2022/04/15 01:40:48;;;;;;;20.45;18.63;;;12.80;99.90;;;;;;5051624;28;20234;-61
2022/04/15 01:43:16;;;;;;;22.73;20.77;;;12.80;99.90;;;;;;5050776;28;20196;-61
2022/04/15 01:45:44;;;;;;;21.63;19.70;;;12.80;99.90;;;;;;5051604;28;20250;-62
2022/04/15 01:48:12;;;;;;;23.38;21.17;;;12.90;99.90;;;;;;5051343;28;20250;-61
2022/04/15 01:50:40;;;;;;;25.83;23.52;;;12.80;99.90;;;;;;5051499;28;20319;-61
2022/04/15 01:53:08;;;;;;;24.98;22.67;;;12.80;99.90;;;;;;5050904;28;20298;-61
2022/04/15 01:55:37;;;;;;;23.58;21.38;;;12.80;99.90;;;;;;5051284;28;20222;-62
2022/04/15 01:58:06;;;;;;;21.92;20.10;;;12.80;99.90;;;;;;5056441;28;20253;-61
2022/04/15 02:00:34;;;;;;;21.20;19.15;;;12.90;99.90;;;;;;5065730;28;20278;-62
2022/04/15 02:03:02;;;;;;;23.55;21.52;;;12.90;99.90;;;;;;5050695;28;20223;-61
2022/04/15 02:05:30;;;;;;;22.48;20.27;;;12.90;99.90;;;;;;5051121;28;20231;-62
2022/04/15 02:07:58;;;;;;;23.63;21.23;;;12.90;99.90;;;;;;5051047;28;20249;-61
2022/04/15 02:10:26;;;;;;;26.92;22.88;;;12.80;99.90;;;;;;5070030;28;20290;-62
2022/04/15 02:12:54;;;;;;;26.73;24.25;;;12.80;99.90;;;;;;5069466;28;20336;-61
2022/04/15 02:15:23;;;;;;;26.65;24.05;;;12.80;99.90;;;;;;5050985;28;20240;-61
2022/04/15 02:17:51;;;;;;;28.48;25.75;;;12.80;99.90;;;;;;5050868;28;20199;-62
2022/04/15 02:20:19;;;;;;;26.60;24.10;;;12.80;99.90;;;;;;5050341;28;20653;-61
2022/04/15 02:22:47;;;;;;;29.35;26.55;;;12.80;99.90;;;;;;5050217;28;20250;-61
2022/04/15 02:25:15;;;;;;;27.05;24.65;;;12.80;99.90;;;;;;5069856;28;20211;-61
2022/04/15 02:27:44;;;;;;;27.20;24.95;;;12.80;99.90;;;;;;5071073;28;20249;-60
2022/04/15 02:30:12;;;;;;;28.10;25.45;;;12.80;99.90;;;;;;5067098;28;20318;-61
2022/04/15 02:32:41;;;;;;;26.25;23.80;;;12.80;99.90;;;;;;5050289;28;20250;-61
2022/04/15 02:35:10;;;;;;;29.02;26.42;;;12.80;99.90;;;;;;5050450;28;20195;-61
2022/04/15 02:37:38;;;;;;;28.95;26.25;;;12.80;99.90;;;;;;5050694;28;20215;-61
2022/04/15 02:40:07;;;;;;;27.35;24.88;;;12.90;99.90;;;;;;5050949;28;20657;-61
2022/04/15 02:42:35;;;;;;;28.67;25.75;;;12.80;99.90;;;;;;5050147;28;20203;-60
2022/04/15 02:45:03;;;;;;;29.75;27.15;;;12.90;99.90;;;;;;5050653;28;20196;-61
2022/04/15 02:47:31;;;;;;;29.17;26.38;;;12.90;99.90;;;;;;5049949;28;20205;-62
2022/04/15 02:50:02;;;;;;;28.15;25.58;;;12.90;99.90;;;;;;5050547;28;20227;-61
2022/04/15 02:52:30;;;;;;;28.52;25.98;;;12.90;99.90;;;;;;5050173;28;20199;-61
2022/04/15 02:54:58;;;;;;;27.83;25.10;;;12.80;99.90;;;;;;5050829;28;20200;-61
2022/04/15 02:57:25;;;;;;;27.55;24.73;;;12.80;99.90;;;;;;5050461;28;20724;-61
2022/04/15 02:59:53;;;;;;;27.33;24.75;;;12.90;99.90;;;;;;5050687;28;20220;-61
2022/04/15 03:02:21;;;;;;;24.50;22.40;;;12.90;99.90;;;;;;5049717;28;20610;-61
2022/04/15 03:04:49;;;;;;;25.80;23.42;;;12.90;99.90;;;;;;5050328;28;20204;-61
2022/04/15 03:07:18;;;;;;;24.30;22.05;;;12.90;99.90;;;;;;5050592;28;20612;-62
2022/04/15 03:09:46;;;;;;;27.55;24.85;;;13.00;99.90;;;;;;5069055;28;20243;-61
2022/04/15 03:12:14;;;;;;;27.13;24.48;;;12.90;99.90;;;;;;5069851;28;20991;-61
2022/04/15 03:14:42;;;;;;;25.63;23.50;;;12.90;99.90;;;;;;5068394;28;20200;-61
2022/04/15 03:17:11;;;;;;;27.25;24.70;;;12.80;99.90;;;;;;5070325;28;20769;-61
2022/04/15 03:19:39;;;;;;;27.17;24.65;;;12.80;99.90;;;;;;5070264;28;20191;-62
2022/04/15 03:22:07;;;;;;;26.40;23.95;;;12.70;99.90;;;;;;5058318;28;20238;-61
2022/04/15 03:24:36;;;;;;;25.63;23.45;;;12.70;99.90;;;;;;5068786;28;20892;-61
2022/04/15 03:27:05;;;;;;;27.30;24.60;;;12.70;99.90;;;;;;5070170;28;20250;-61
2022/04/15 03:29:33;;;;;;;26.40;23.95;;;12.70;99.90;;;;;;5070112;28;20684;-61
2022/04/15 03:32:00;;;;;;;28.15;25.55;;;12.70;99.90;;;;;;5071757;28;20285;-61
2022/04/15 03:34:28;;;;;;;26.70;24.33;;;12.60;99.90;;;;;;5073979;28;20274;-62
2022/04/15 03:36:56;;;;;;;29.00;26.40;;;12.60;99.90;;;;;;5073723;28;20231;-61
2022/04/15 03:39:24;;;;;;;28.83;26.27;;;12.60;99.90;;;;;;5059096;28;20306;-61
2022/04/15 03:41:53;;;;;;;30.55;27.70;;;12.50;99.90;;;;;;5053772;28;20283;-61
2022/04/15 03:44:21;;;;;;;28.55;25.83;;;12.50;99.90;;;;;;5053505;28;20224;-61
2022/04/15 03:46:49;;;;;;;27.42;24.73;;;12.50;99.90;;;;;;5053678;28;20212;-61
2022/04/15 03:49:17;;;;;;;28.08;25.38;;;12.50;99.90;;;;;;5053708;28;20299;-61
2022/04/15 03:51:45;;;;;;;27.23;24.83;;;12.50;99.90;;;;;;5053774;28;21008;-61
2022/04/15 03:54:13;;;;;;;29.73;27.13;;;12.40;99.90;;;;;;5070752;28;20287;-61
2022/04/15 03:56:40;;;;;;;26.67;24.10;;;12.40;99.90;;;;;;5057475;28;20228;-61
2022/04/15 03:59:10;;;;;;;27.23;24.60;;;12.50;99.90;;;;;;5053451;28;20246;-61
2022/04/15 04:01:37;;;;;;;26.80;24.10;;;12.40;99.90;;;;;;5053565;28;20283;-61
2022/04/15 04:04:05;;;;;;;27.60;25.08;;;12.40;99.90;;;;;;5052571;28;20717;-61
2022/04/15 04:06:33;;;;;;;26.77;24.33;;;12.40;99.90;;;;;;5053481;28;20216;-61
2022/04/15 04:09:01;;;;;;;26.65;24.23;;;12.40;99.90;;;;;;5053499;28;20695;-61
2022/04/15 04:11:29;;;;;;;24.23;21.95;;;12.40;99.90;;;;;;5050184;28;20255;-61
2022/04/15 04:13:57;;;;;;;28.30;25.70;;;12.40;99.90;;;;;;5050824;28;20665;-61
2022/04/15 04:16:26;;;;;;;30.45;25.83;;;12.30;99.90;;;;;;5050918;28;20220;-61
2022/04/15 04:18:55;;;;;;;24.45;22.05;;;12.30;99.90;;;;;;5051796;28;20204;-61
2022/04/15 04:21:23;;;;;;;26.88;23.80;;;12.30;99.90;;;;;;5051288;28;20275;-61
2022/04/15 04:23:51;;;;;;;26.05;23.55;;;12.30;99.90;;;;;;5051253;28;20253;-61
2022/04/15 04:26:19;;;;;;;24.75;22.40;;;12.30;99.90;;;;;;5051741;28;20220;-61
2022/04/15 04:28:47;;;;;;;22.75;20.45;;;12.20;99.90;;;;;;5051499;28;20956;-61
2022/04/15 04:31:15;;;;;;;21.65;19.30;;;12.30;99.90;;;;;;5051525;28;20250;-61
2022/04/15 04:33:44;;;;;;;21.52;19.60;;;12.20;99.90;;;;;;5047019;28;20602;-61
2022/04/15 04:36:12;;;;;;;24.17;21.88;;;12.30;99.90;;;;;;5061326;28;20262;-61
2022/04/15 04:38:40;;;;;;;26.83;24.33;;;12.20;99.90;;;;;;5066243;28;20200;-61
2022/04/15 04:41:08;;;;;;;25.30;22.70;;;12.10;99.90;;;;;;5052575;28;20275;-61
2022/04/15 04:43:35;;;;;;;24.25;21.95;;;12.10;99.90;;;;;;5050877;28;20231;-62
2022/04/15 04:46:03;;;;;;;21.33;19.13;;;12.00;99.90;;;;;;5051876;28;20651;-61
2022/04/15 04:48:32;;;;;;;19.42;17.60;;;12.00;99.90;;;;;;5052133;28;20192;-61
2022/04/15 04:51:01;;;;;;;19.63;17.92;;;12.00;99.90;;;;;;5052532;28;20251;-61
2022/04/15 04:53:29;;;;;;;18.95;16.98;;;12.00;99.90;;;;;;5051882;28;20215;-61
2022/04/15 04:55:57;;;;;;;20.08;18.27;;;12.10;99.90;;;;;;5056513;28;20632;-60
2022/04/15 04:58:25;;;;;;;16.92;15.43;;;12.10;99.90;;;;;;5051893;28;20294;-61
2022/04/15 05:00:53;;;;;;;16.85;15.23;;;12.10;99.90;;;;;;5061821;28;20215;-61
2022/04/15 05:03:21;;;;;;;18.23;16.63;;;12.20;99.90;;;;;;5064665;28;20196;-61
2022/04/15 05:05:49;;;;;;;17.08;15.45;;;12.20;99.90;;;;;;5070585;28;20730;-61
2022/04/15 05:08:18;;;;;;;14.52;13.18;;;12.30;99.90;;;;;;5070346;28;20261;-60
2022/04/15 05:10:46;;;;;;;16.30;14.73;;;12.40;99.90;;;;;;5064051;28;20311;-60
2022/04/15 05:13:14;;;;;;;14.95;13.48;;;12.50;99.90;;;;;;5066863;28;21007;-61
2022/04/15 05:15:42;;;;;;;15.23;13.90;;;12.50;99.90;;;;;;5070155;28;20269;-61
2022/04/15 05:18:10;;;;;;;14.30;12.82;;;12.60;99.90;;;;;;5047687;28;20203;-61
2022/04/15 05:20:38;;;;;;;13.15;11.55;;;12.60;99.90;;;;;;5052896;28;20272;-61
2022/04/15 05:23:06;;;;;;;13.50;12.35;;;12.60;99.90;;;;;;5069247;28;20299;-60
2022/04/15 05:25:35;;;;;;;14.55;13.05;;;12.60;99.90;;;;;;5069859;28;20288;-61
2022/04/15 05:28:06;;;;;;;12.45;11.10;;;12.70;99.90;;;;;;5069122;28;20231;-61
2022/04/15 05:30:33;;;;;;;15.38;13.80;;;12.80;99.90;;;;;;5070012;28;20219;-61
2022/04/15 05:33:01;;;;;;;16.85;15.25;;;12.80;99.90;;;;;;5069078;28;20206;-61
2022/04/15 05:35:30;;;;;;;19.95;17.73;;;12.80;99.90;;;;;;5069371;28;20680;-61
2022/04/15 05:37:58;;;;;;;22.55;20.45;;;12.80;99.90;;;;;;5060383;28;20204;-61
2022/04/15 05:40:27;;;;;;;24.50;21.80;;;12.50;99.90;;;;;;5051196;28;20200;-61
2022/04/15 05:42:57;;;;;;;22.40;20.30;;;12.60;99.90;;;;;;5060518;28;20862;-61
2022/04/15 05:45:26;;;;;;;21.25;19.25;;;12.70;99.90;;;;;;5050643;28;20370;-61
2022/04/15 05:47:57;;;;;;;22.55;20.55;;;12.80;99.90;;;;;;5055569;28;20714;-61
2022/04/15 05:50:26;;;;;;;20.02;18.33;;;12.80;99.90;;;;;;5069751;28;20958;-61
2022/04/15 05:52:53;;;;;;;23.15;20.75;;;12.80;99.90;;;;;;5069022;28;20256;-61
2022/04/15 05:55:22;;;;;;;25.13;22.58;;;13.00;99.90;;;;;;5055517;28;20224;-61
2022/04/15 05:57:50;;;;;;;26.00;23.33;;;12.90;99.90;;;;;;5050835;28;20195;-61
2022/04/15 06:00:19;;;;;;;24.20;21.90;;;12.90;99.90;;;;;;5050742;28;20249;-61
2022/04/15 06:02:47;;;;;;;23.02;21.00;;;12.80;99.90;;;;;;5049987;28;20223;-60
2022/04/15 06:05:22;;;;;;;23.20;21.10;;;12.80;99.90;;;;;;5059096;28;20226;-61
2022/04/15 06:07:50;;;;;;;24.77;22.55;;;12.80;99.90;;;;;;5046928;28;20661;-61
2022/04/15 06:10:18;;;;;;;22.42;20.40;;;12.80;99.90;;;;;;5050724;28;20188;-60
2022/04/15 06:12:57;;;;;;;25.15;23.05;;;12.90;99.90;;;;;;5049744;28;20727;-60
2022/04/15 06:15:28;;;;;;;24.85;22.65;;;13.00;99.90;;;;;;5050021;28;20223;-61
2022/04/15 06:17:57;;;;;;;23.23;20.63;;;13.10;99.90;;;;;;5050367;28;20706;-61
2022/04/15 06:20:25;;;;;;;23.95;21.65;;;13.30;99.90;;;;;;5049524;28;20927;-61
2022/04/15 06:22:53;;;;;;;23.58;21.48;;;13.30;99.90;;;;;;5050324;28;20223;-61
2022/04/15 06:25:21;;;;;;;24.98;22.88;;;13.50;99.90;;;;;;5050135;28;20227;-61
2022/04/15 06:27:49;;;;;;;24.17;21.88;;;13.60;99.90;;;;;;5050130;28;20715;-61
2022/04/15 06:30:19;;;;;;;25.58;23.30;;;13.70;99.90;;;;;;5049850;28;20624;-61
2022/04/15 06:32:48;;;;;;;23.60;21.40;;;13.70;99.90;;;;;;5049254;28;20239;-61
2022/04/15 06:35:16;;;;;;;21.05;19.23;;;13.70;99.90;;;;;;5049284;28;20307;-61
2022/04/15 06:37:44;;;;;;;21.48;19.23;;;13.80;99.90;;;;;;5049548;28;20220;-61
2022/04/15 06:40:13;;;;;;;23.35;21.20;;;13.80;99.90;;;;;;5049374;28;20227;-61
2022/04/15 06:42:40;;;;;;;22.45;20.20;;;14.00;99.90;;;;;;5048628;28;20192;-61
2022/04/15 06:45:11;;;;;;;21.15;19.35;;;14.10;99.90;;;;;;5065168;28;20204;-60
2022/04/15 06:47:39;;;;;;;18.55;16.95;;;14.20;99.90;;;;;;5053000;28;20745;-61
2022/04/15 06:50:09;;;;;;;20.23;18.38;;;14.30;99.90;;;;;;5068676;28;20236;-60
2022/04/15 06:52:37;;;;;;;20.65;18.60;;;14.50;99.90;;;;;;5062180;28;20216;-61
2022/04/15 06:55:06;;;;;;;19.02;17.35;;;14.60;99.90;;;;;;5049259;28;20227;-61
2022/04/15 06:57:34;;;;;;;18.60;17.00;;;14.70;99.90;;;;;;5049511;28;20626;-61
2022/04/15 07:00:02;;;;;;;18.85;17.35;;;14.70;99.90;;;;;;5045664;28;20673;-60
2022/04/15 07:02:30;;;;;;;19.08;17.27;;;14.70;99.90;;;;;;5048139;28;20605;-60
2022/04/15 07:04:58;;;;;;;18.52;16.92;;;14.70;99.90;;;;;;5049154;28;20196;-61
2022/04/15 07:07:27;;;;;;;20.52;18.58;;;14.70;99.90;;;;;;5051575;28;20196;-61
2022/04/15 07:09:55;;;;;;;20.75;18.95;;;14.80;99.90;;;;;;5067862;28;20203;-62
2022/04/15 07:12:23;;;;;;;19.75;17.80;;;14.80;99.90;;;;;;5070501;28;20241;-61
2022/04/15 07:14:51;;;;;;;21.52;19.35;;;14.70;99.90;;;;;;5067480;28;20202;-60
2022/04/15 07:17:19;;;;;;;20.52;18.77;;;14.70;99.90;;;;;;5060492;28;20257;-61
2022/04/15 07:19:47;;;;;;;17.80;16.30;;;14.70;99.90;;;;;;5053377;28;20192;-61
2022/04/15 07:22:18;;;;;;;19.95;18.10;;;14.70;99.90;;;;;;5044102;28;20201;-60
2022/04/15 07:24:47;;;;;;;18.48;16.92;;;14.80;99.90;;;;;;5046922;28;20192;-60
2022/04/15 07:27:15;;;;;;;17.90;16.30;;;14.90;99.90;;;;;;5036110;28;20235;-61
2022/04/15 07:29:44;;;;;;;17.80;15.95;;;15.10;99.90;;;;;;5069093;28;20226;-61
2022/04/15 07:32:13;;;;;;;18.20;16.60;;;15.30;99.90;;;;;;5071287;28;20211;-60
2022/04/15 07:34:41;;;;;;;20.60;18.73;;;15.50;99.90;;;;;;5049585;28;20192;-60
2022/04/15 07:37:09;;;;;;;20.25;18.45;;;15.60;99.90;;;;;;5050929;28;20720;-61
2022/04/15 07:39:37;;;;;;;18.83;17.15;;;15.60;99.90;;;;;;5063272;28;20251;-61
2022/04/15 07:42:07;;;;;;;19.00;17.40;;;15.60;99.90;;;;;;5051599;28;20180;-61
2022/04/15 07:44:35;;;;;;;18.98;16.38;;;15.70;99.90;;;;;;5052091;28;20210;-60
2022/04/15 07:47:04;;;;;;;14.20;12.75;;;15.60;99.90;;;;;;5058817;28;20696;-61
2022/04/15 07:49:33;;;;;;;13.07;11.88;;;15.70;99.90;;;;;;5075050;23;20299;-63
2022/04/15 07:52:00;;;;;;;7.43;6.30;;;15.90;99.90;;;;;;5049823;28;20286;-61
2022/04/15 07:54:28;;;;;;;6.90;6.30;;;16.20;99.90;;;;;;5053162;28;20223;-62
2022/04/15 07:56:56;;;;;;;9.90;8.90;;;16.50;99.90;;;;;;5052261;28;20251;-61
2022/04/15 07:59:25;;;;;;;3.75;3.45;;;16.70;99.90;;;;;;5058705;28;20358;-62
2022/04/15 08:01:54;;;;;;;1.38;1.27;;;16.80;99.90;;;;;;5073530;28;20234;-62
2022/04/15 08:04:22;;;;;;;2.25;1.90;;;16.90;99.90;;;;;;5072609;28;20223;-62
2022/04/15 08:06:50;;;;;;;1.30;1.20;;;16.90;99.90;;;;;;5069764;28;20225;-62
2022/04/15 08:09:20;;;;;;;1.30;1.20;;;17.00;99.90;;;;;;5058772;28;20216;-62
2022/04/15 08:11:47;;;;;;;2.50;1.50;;;17.10;99.90;;;;;;5065365;28;20556;-62
2022/04/15 08:14:15;;;;;;;2.40;1.25;;;17.20;99.90;;;;;;5061803;28;20265;-61
2022/04/15 08:16:44;;;;;;;3.20;1.10;;;17.40;99.90;;;;;;5072426;28;20199;-62
2022/04/15 08:19:12;;;;;;;1.88;1.23;;;17.60;99.90;;;;;;5071885;28;20211;-61
2022/04/15 08:21:40;;;;;;;2.25;1.13;;;17.60;99.80;;;;;;5072719;28;20558;-62
2022/04/15 08:24:08;;;;;;;0.90;0.73;;;17.60;99.70;;;;;;5072263;28;20183;-62
2022/04/15 08:26:36;;;;;;;1.65;0.80;;;17.70;99.10;;;;;;5072044;28;20298;-62
2022/04/15 08:29:05;;;;;;;2.00;0.90;;;17.80;98.20;;;;;;5071009;28;20384;-61
2022/04/15 08:31:32;;;;;;;1.00;0.70;;;17.80;98.20;;;;;;5064360;28;20278;-62
2022/04/15 08:34:02;;;;;;;1.13;0.82;;;17.90;97.70;;;;;;5072058;28;20225;-62
2022/04/15 08:36:30;;;;;;;1.92;0.70;;;18.20;97.50;;;;;;5072428;28;20283;-62
2022/04/15 08:38:58;;;;;;;2.75;0.90;;;18.30;96.80;;;;;;5072637;28;20573;-62
2022/04/15 08:41:29;;;;;;;1.27;0.88;;;18.50;96.50;;;;;;5072470;28;20274;-62
2022/04/15 08:43:58;;;;;;;0.77;0.50;;;18.40;95.90;;;;;;5072088;28;20577;-62
2022/04/15 08:46:26;;;;;;;1.40;0.60;;;18.30;95.80;;;;;;5072390;28;20600;-61
2022/04/15 08:48:55;;;;;;;0.98;0.60;;;18.30;96.00;;;;;;5071763;28;20623;-62
2022/04/15 08:51:25;;;;;;;1.20;0.60;;;18.60;95.50;;;;;;5058971;28;20727;-62
2022/04/15 08:53:54;;;;;;;0.82;0.60;;;18.70;95.60;;;;;;5047337;28;20223;-61
2022/04/15 08:56:23;;;;;;;2.70;0.80;;;19.10;95.80;;;;;;5046122;28;20232;-62
2022/04/15 08:58:51;;;;;;;1.00;0.68;;;19.10;94.80;;;;;;5050666;28;20198;-61
2022/04/15 09:01:19;;;;;;;0.93;0.82;;;19.20;94.50;;;;;;5045759;28;20291;-62
2022/04/15 09:03:47;;;;;;;0.90;0.70;;;19.20;94.20;;;;;;5047446;28;20199;-64
2022/04/15 09:06:16;;;;;;;0.90;0.73;;;19.30;94.00;;;;;;5046555;28;20207;-63
2022/04/15 09:09:01;;;;;;;1.73;0.70;;;19.40;93.50;;;;;;5045692;28;20208;-63
2022/04/15 09:11:32;;;;;;;1.65;0.70;;;19.40;93.50;;;;;;5045907;28;20203;-62
2022/04/15 09:14:03;;;;;;;2.25;0.85;;;19.40;93.50;;;;;;5045053;28;21678;-63
2022/04/15 09:16:32;;;;;;;1.58;0.80;;;19.60;93.50;;;;;;5044247;28;20223;-64
2022/04/15 09:19:00;;;;;;;0.90;0.65;;;19.70;92.60;;;;;;5045566;28;20210;-63
2022/04/15 09:21:28;;;;;;;1.60;0.80;;;19.90;92.40;;;;;;5046032;28;20207;-62
2022/04/15 09:23:56;;;;;;;2.00;0.70;;;20.00;92.50;;;;;;5046271;28;20200;-63
2022/04/15 09:26:27;;;;;;;0.70;0.55;;;20.20;91.90;;;;;;5045819;28;20211;-63
2022/04/15 09:28:55;;;;;;;1.75;0.90;;;20.30;91.60;;;;;;5044625;28;20207;-64
2022/04/15 09:31:25;;;;;;;1.25;0.80;;;20.40;91.80;;;;;;5046048;28;20278;-64
2022/04/15 09:33:55;;;;;;;1.33;0.93;;;20.60;91.50;;;;;;5046338;28;20235;-63
2022/04/15 09:36:31;;;;;;;1.00;0.70;;;20.40;91.40;;;;;;5046632;28;20214;-64
2022/04/15 09:39:01;;;;;;;1.70;1.00;;;20.70;91.40;;;;;;5047264;28;20294;-63
2022/04/15 09:41:31;;;;;;;1.92;1.08;;;21.00;91.20;;;;;;5047574;28;20249;-63
2022/04/15 09:44:00;;;;;;;2.20;1.23;;;21.10;91.10;;;;;;5042531;28;20231;-63
2022/04/15 09:46:30;;;;;;;1.42;0.90;;;21.20;91.50;;;;;;5046500;28;20191;-64
2022/04/15 09:49:03;;;;;;;1.60;1.13;;;21.50;90.20;;;;;;5044023;28;20349;-64
2022/04/15 09:51:34;;;;;;;0.80;0.80;;;21.50;90.10;;;;;;5047782;28;20288;-63
2022/04/15 09:54:04;;;;;;;1.10;1.00;;;21.30;90.40;;;;;;5043340;28;20306;-64
2022/04/15 09:56:35;;;;;;;1.15;0.80;;;20.90;90.40;;;;;;5048853;28;20290;-63
2022/04/15 09:59:08;;;;;;;1.52;1.00;;;20.90;90.70;;;;;;5045097;28;20199;-63
2022/04/15 10:01:41;;;;;;;1.70;0.95;;;20.90;90.70;;;;;;5044853;28;20286;-61
2022/04/15 10:04:11;;;;;;;1.58;1.00;;;20.90;91.70;;;;;;5045948;28;20227;-61
2022/04/15 10:06:40;;;;;;;3.92;1.20;;;20.90;91.70;;;;;;5043207;28;20295;-61
2022/04/15 10:09:11;;;;;;;2.33;1.88;;;20.80;92.10;;;;;;5041920;28;20215;-63
2022/04/15 10:11:44;;;;;;;2.38;1.08;;;20.90;92.00;;;;;;5044969;28;20289;-65
2022/04/15 10:14:13;;;;;;;1.75;1.10;;;20.90;91.40;;;;;;5033712;28;20769;-65
2022/04/15 10:16:42;;;;;;;1.55;1.17;;;20.70;91.20;;;;;;5043338;28;20756;-64
2022/04/15 10:19:12;;;;;;;1.48;1.25;;;20.60;91.40;;;;;;5042496;28;20304;-63
2022/04/15 10:21:42;;;;;;;2.28;1.27;;;20.50;91.60;;;;;;5045255;28;20262;-63
2022/04/15 10:24:10;;;;;;;1.27;1.17;;;20.70;91.40;;;;;;5044203;28;20232;-62
2022/04/15 10:26:43;;;;;;;1.48;1.23;;;20.80;91.50;;;;;;5044293;28;20207;-63
2022/04/15 10:29:11;;;;;;;2.42;1.60;;;20.80;91.20;;;;;;5045216;28;20707;-63
2022/04/15 10:31:42;;;;;;;1.70;1.50;;;21.00;92.30;;;;;;5042299;28;20208;-62
2022/04/15 10:34:14;;;;;;;2.15;1.30;;;21.40;92.20;;;;;;5035814;28;20269;-63
2022/04/15 10:36:47;;;;;;;1.55;1.45;;;21.70;91.50;;;;;;5044093;28;20204;-62
2022/04/15 10:39:20;;;;;;;3.33;1.25;;;21.70;90.70;;;;;;5041459;28;20234;-61
2022/04/15 10:41:58;;;;;;;2.30;1.83;;;22.30;90.80;;;;;;5043019;28;20313;-63
2022/04/15 10:44:33;;;;;;;3.75;1.88;;;22.60;90.60;;;;;;5042795;28;20715;-63
2022/04/15 10:47:06;;;;;;;1.40;1.30;;;22.90;90.80;;;;;;5045073;28;20203;-62
2022/04/15 10:49:35;;;;;;;4.63;0.90;;;23.10;91.00;;;;;;5043321;28;20235;-62
2022/04/15 10:52:16;;;;;;;1.17;0.98;;;22.80;87.30;;;;;;5046537;28;20283;-61
2022/04/15 10:54:46;;;;;;;2.33;0.93;;;22.50;90.60;;;;;;5043788;28;20254;-64
2022/04/15 10:57:17;;;;;;;2.80;1.33;;;22.60;89.30;;;;;;5045319;28;20226;-62
2022/04/15 11:02:40;;;;;;;1.23;0.80;;;23.00;87.00;;;;;;5043506;28;20779;-65
2022/04/15 11:05:11;;;;;;;1.92;0.80;;;23.20;84.60;;;;;;5045945;28;20207;-60
2022/04/15 11:07:51;;;;;;;1.40;0.95;;;23.20;86.50;;;;;;5044652;28;20206;-63
2022/04/15 11:10:46;;;;;;;0.85;0.60;;;23.60;83.60;;;;;;5042847;28;20227;-63
2022/04/15 11:13:33;;;;;;;1.35;0.80;;;23.70;83.50;;;;;;5043796;28;20978;-62
2022/04/15 11:16:11;;;;;;;0.90;0.80;;;23.60;84.90;;;;;;5044527;28;20282;-62
2022/04/15 11:18:47;;;;;;;1.63;0.88;;;23.50;83.70;;;;;;5042091;28;20211;-61
2022/04/15 11:21:19;;;;;;;2.00;0.85;;;23.60;85.00;;;;;;5043714;28;20663;-61
2022/04/15 11:23:49;;;;;;;1.63;0.80;;;23.60;82.40;;;;;;5043847;28;21513;-61
2022/04/15 11:26:17;;;;;;;2.28;1.08;;;23.30;81.60;;;;;;5043087;28;20279;-61
2022/04/15 11:28:47;;;;;;;0.80;0.80;;;23.40;81.50;;;;;;5042082;28;20203;-61
2022/04/15 11:31:23;;;;;;;1.40;0.90;;;23.70;80.90;;;;;;5043896;28;20278;-61
2022/04/15 11:33:51;;;;;;;1.65;0.85;;;23.80;81.00;;;;;;5043124;28;20246;-61
2022/04/15 11:36:20;;;;;;;2.22;0.88;;;23.80;83.00;;;;;;5044438;28;20256;-61
2022/04/15 11:38:49;;;;;;;1.70;0.80;;;24.00;83.60;;;;;;5039735;28;20288;-61
2022/04/15 11:41:18;;;;;;;1.73;0.90;;;24.50;82.00;;;;;;5043150;28;20286;-61
2022/04/15 11:43:55;;;;;;;2.67;0.85;;;24.70;81.20;;;;;;5043858;28;20199;-61
2022/04/15 11:46:23;;;;;;;1.35;0.75;;;24.60;78.60;;;;;;5045012;28;20230;-61
2022/04/15 11:48:54;;;;;;;2.25;1.20;;;24.60;77.30;;;;;;5042203;28;20766;-61
2022/04/15 11:51:23;;;;;;;1.00;0.90;;;24.40;79.30;;;;;;5044102;28;20279;-62
2022/04/15 11:53:54;;;;;;;2.15;1.10;;;24.40;80.60;;;;;;5044445;28;21056;-61
2022/04/15 11:56:27;;;;;;;1.30;0.90;;;25.00;79.20;;;;;;5046964;28;20287;-62
2022/04/15 11:58:57;;;;;;;1.75;0.75;;;25.20;77.80;;;;;;5045364;28;20434;-62
2022/04/15 12:01:29;;;;;;;1.38;0.90;;;24.80;79.10;;;;;;5049127;28;20261;-62
2022/04/15 12:03:57;;;;;;;0.98;0.80;;;24.80;76.70;;;;;;5067114;28;20195;-63
2022/04/15 12:06:26;;;;;;;1.00;0.80;;;24.90;80.50;;;;;;5062818;28;20305;-62
2022/04/15 12:08:56;;;;;;;3.60;1.05;;;24.30;79.80;;;;;;5067216;28;20213;-63
2022/04/15 12:11:26;;;;;;;1.27;0.88;;;24.20;79.70;;;;;;5065982;28;20226;-62
2022/04/15 12:13:58;;;;;;;3.03;0.93;;;23.90;79.10;;;;;;5066281;28;20223;-62
2022/04/15 12:16:28;;;;;;;1.05;0.90;;;23.20;81.90;;;;;;5069642;28;20300;-62
2022/04/15 12:18:57;;;;;;;1.05;0.82;;;23.40;82.60;;;;;;5069656;28;20202;-62
2022/04/15 12:21:26;;;;;;;1.20;1.10;;;23.40;82.90;;;;;;5065082;28;20283;-62
2022/04/15 12:24:01;;;;;;;1.88;1.00;;;23.40;80.50;;;;;;5065411;28;20737;-62
2022/04/15 12:26:29;;;;;;;2.50;0.90;;;23.30;80.40;;;;;;5068259;28;20612;-62
2022/04/15 12:31:50;;;;;;;1.80;1.00;;;22.90;82.50;;;;;;5069356;28;20278;-58
2022/04/15 12:34:18;;;;;;;1.50;0.70;;;22.90;80.20;;;;;;5062638;28;20210;-60
2022/04/15 12:36:46;;;;;;;2.35;1.00;;;23.60;77.90;;;;;;5063328;28;20227;-60
2022/04/15 12:39:15;;;;;;;2.55;1.33;;;24.30;77.80;;;;;;5066121;28;20223;-59
2022/04/15 12:41:46;;;;;;;1.15;1.02;;;24.10;78.60;;;;;;5066535;28;20633;-59
2022/04/15 12:44:18;;;;;;;2.17;1.15;;;24.20;78.30;;;;;;5065585;28;20222;-58
2022/04/15 12:46:48;;;;;;;2.42;1.08;;;24.40;79.30;;;;;;5060374;28;20199;-59
2022/04/15 12:49:24;;;;;;;1.25;1.08;;;24.60;79.70;;;;;;5069163;28;20670;-60
2022/04/15 12:51:52;;;;;;;2.75;1.30;;;24.10;79.70;;;;;;5070337;28;20191;-60